Time;durP1;ratioP1;P1;durP2;ratioP2;P2;SDS_P1;SDS_P2;PMS_P1;PMS_P2;Temp;Humidity;BMP_temperature;BMP_pressure;BME280_temperature;BME280_humidity;BME280_pressure;Samples;Min_cycle;Max_cycle;Signal;HPM_P1;HPM_P2
2022/05/29 04:01:48;;;;;;;9.18;5.82;;;9.90;99.90;;;;;;5316294;23;20371;-70
2022/05/29 04:04:15;;;;;;;11.38;5.75;;;9.90;99.90;;;;;;4973423;28;20871;-70
2022/05/29 04:06:41;;;;;;;11.75;5.38;;;9.90;99.90;;;;;;4973465;28;20661;-71
2022/05/29 04:12:05;;;;;;;7.95;5.57;;;10.00;99.90;;;;;;4958715;28;20715;-71
2022/05/29 04:14:33;;;;;;;14.43;7.18;;;10.00;99.90;;;;;;4954726;28;20209;-70
2022/05/29 04:17:01;;;;;;;10.32;4.78;;;10.00;99.90;;;;;;4953966;28;20209;-71
2022/05/29 04:19:28;;;;;;;21.45;8.25;;;10.00;99.90;;;;;;4954171;28;20256;-69
2022/05/29 04:21:54;;;;;;;15.73;5.47;;;10.00;99.90;;;;;;4952978;28;20630;-69
2022/05/29 04:24:21;;;;;;;12.65;5.88;;;10.00;99.90;;;;;;4954217;28;20268;-69
2022/05/29 04:26:48;;;;;;;11.27;5.20;;;10.00;99.90;;;;;;4951414;28;20264;-69
2022/05/29 04:29:15;;;;;;;7.88;5.43;;;10.00;99.90;;;;;;4934931;29;20213;-69
2022/05/29 04:32:59;;;;;;;10.27;5.30;;;10.00;99.90;;;;;;4943209;29;20604;-69
2022/05/29 04:34:30;;;;;;;17.33;6.45;;;10.00;99.90;;;;;;4953585;29;20219;-71
2022/05/29 04:36:57;;;;;;;14.65;5.90;;;10.00;99.90;;;;;;4943700;29;20209;-69
2022/05/29 04:39:24;;;;;;;13.88;5.43;;;10.00;99.90;;;;;;4954137;28;20213;-70
2022/05/29 04:41:50;;;;;;;9.07;5.85;;;10.00;99.90;;;;;;4952314;28;20221;-70
2022/05/29 04:44:17;;;;;;;10.98;4.97;;;10.00;99.90;;;;;;4954203;28;20597;-68
2022/05/29 04:46:44;;;;;;;10.48;5.20;;;10.00;99.90;;;;;;4952724;28;20666;-70
2022/05/29 04:49:11;;;;;;;14.68;5.75;;;10.00;99.90;;;;;;4953646;28;20209;-68
2022/05/29 04:51:39;;;;;;;9.77;4.80;;;10.10;99.90;;;;;;4951660;28;20229;-68
2022/05/29 04:54:06;;;;;;;8.95;5.35;;;10.10;99.90;;;;;;4953513;28;20591;-69
2022/05/29 04:56:32;;;;;;;5.07;4.65;;;10.10;99.90;;;;;;4953124;28;20210;-70
2022/05/29 04:58:59;;;;;;;16.73;5.68;;;10.10;99.90;;;;;;4939971;29;20264;-69
2022/05/29 05:01:26;;;;;;;12.65;5.53;;;10.10;99.90;;;;;;4953450;28;20284;-68
2022/05/29 05:03:52;;;;;;;16.58;5.20;;;10.20;99.90;;;;;;4947706;28;20226;-71
2022/05/29 05:06:19;;;;;;;14.77;5.78;;;10.20;99.90;;;;;;4947358;29;20279;-70
2022/05/29 05:08:47;;;;;;;12.93;5.68;;;10.20;99.90;;;;;;4952192;29;20280;-69
2022/05/29 05:11:14;;;;;;;10.40;5.18;;;10.20;99.90;;;;;;4948787;28;20228;-69
2022/05/29 05:13:40;;;;;;;7.57;4.80;;;10.20;99.90;;;;;;4952077;28;20205;-69
2022/05/29 05:16:07;;;;;;;17.80;6.07;;;10.30;99.90;;;;;;4938426;28;20585;-70
2022/05/29 05:18:34;;;;;;;14.07;5.40;;;10.30;99.90;;;;;;4942029;28;20654;-72
2022/05/29 05:21:05;;;;;;;10.68;5.40;;;10.30;99.90;;;;;;4948725;28;20240;-70
2022/05/29 05:23:32;;;;;;;10.60;5.88;;;10.30;99.90;;;;;;4950934;29;20758;-69
2022/05/29 05:26:00;;;;;;;10.00;5.50;;;10.40;99.90;;;;;;4952700;28;20205;-69
2022/05/29 05:28:27;;;;;;;9.75;5.35;;;10.40;99.90;;;;;;4949544;28;20269;-70
2022/05/29 05:30:54;;;;;;;8.60;5.22;;;10.40;99.90;;;;;;4944667;28;20226;-70
2022/05/29 05:33:20;;;;;;;13.45;5.78;;;10.40;99.90;;;;;;4951887;28;20578;-70
2022/05/29 05:35:47;;;;;;;8.68;5.15;;;10.50;99.90;;;;;;4951905;28;20611;-69
2022/05/29 05:38:14;;;;;;;12.05;5.43;;;10.50;99.90;;;;;;4952946;28;20205;-69
2022/05/29 05:40:41;;;;;;;13.23;5.00;;;10.50;99.90;;;;;;4944533;28;20280;-69
2022/05/29 05:43:09;;;;;;;7.50;5.82;;;10.50;99.90;;;;;;4951930;28;20221;-72
2022/05/29 05:45:36;;;;;;;9.45;4.95;;;10.50;99.90;;;;;;4933967;29;20300;-70
2022/05/29 05:48:02;;;;;;;14.40;5.32;;;10.50;99.90;;;;;;4933521;29;20261;-68
2022/05/29 05:50:31;;;;;;;11.35;5.13;;;10.50;99.90;;;;;;4938272;28;20241;-71
2022/05/29 05:52:57;;;;;;;10.23;5.10;;;10.60;99.90;;;;;;4951016;29;20201;-73
2022/05/29 05:55:24;;;;;;;10.13;5.25;;;10.60;99.90;;;;;;4952719;28;20213;-68
2022/05/29 05:57:51;;;;;;;10.77;5.50;;;10.60;99.90;;;;;;4951700;28;20673;-68
2022/05/29 06:00:20;;;;;;;12.70;5.78;;;10.70;99.90;;;;;;4945180;28;20445;-68
2022/05/29 06:02:47;;;;;;;10.20;5.97;;;10.70;99.90;;;;;;4952095;29;20209;-68
2022/05/29 06:05:15;;;;;;;6.88;4.85;;;10.80;99.90;;;;;;4945462;29;20674;-68
2022/05/29 06:07:42;;;;;;;9.35;5.70;;;10.80;99.90;;;;;;4952903;28;20260;-70
2022/05/29 06:10:12;;;;;;;10.73;5.25;;;10.90;99.90;;;;;;4942591;28;20289;-69
2022/05/29 06:12:39;;;;;;;6.93;4.40;;;10.90;99.90;;;;;;4952137;28;20212;-69
2022/05/29 06:15:08;;;;;;;15.45;4.68;;;10.90;99.90;;;;;;4944581;29;20202;-72
2022/05/29 06:17:36;;;;;;;11.25;5.85;;;10.90;99.90;;;;;;4951759;29;20264;-69
2022/05/29 06:20:06;;;;;;;14.20;5.18;;;11.00;99.90;;;;;;4956302;28;20259;-68
2022/05/29 06:22:37;;;;;;;11.90;6.20;;;11.20;99.90;;;;;;4953833;28;20228;-69
2022/05/29 06:25:04;;;;;;;8.60;5.80;;;11.20;99.90;;;;;;4944741;28;20236;-69
2022/05/29 06:27:35;;;;;;;7.60;4.63;;;11.20;99.90;;;;;;4951665;28;20224;-68
2022/05/29 06:30:02;;;;;;;16.45;5.35;;;11.40;99.90;;;;;;4951010;28;20205;-69
2022/05/29 06:32:28;;;;;;;6.10;4.70;;;11.40;99.90;;;;;;4955025;28;20598;-69
2022/05/29 06:34:57;;;;;;;8.23;4.80;;;11.50;99.90;;;;;;4954632;28;20635;-68
2022/05/29 06:37:24;;;;;;;5.90;4.75;;;11.60;99.90;;;;;;4956313;28;20209;-69
2022/05/29 06:39:50;;;;;;;7.13;5.37;;;11.70;99.90;;;;;;4951910;28;20217;-68
2022/05/29 06:42:17;;;;;;;7.03;5.05;;;11.70;99.90;;;;;;4940390;29;20551;-68
2022/05/29 06:44:44;;;;;;;13.73;6.18;;;11.80;99.90;;;;;;4949113;28;20233;-68
2022/05/29 06:47:13;;;;;;;5.70;4.28;;;11.80;99.90;;;;;;4956085;28;20220;-67
2022/05/29 06:49:39;;;;;;;9.03;5.87;;;11.90;99.90;;;;;;4955026;28;20288;-69
2022/05/29 06:52:09;;;;;;;6.90;4.57;;;12.00;99.90;;;;;;4955274;28;20592;-67
2022/05/29 06:54:37;;;;;;;13.70;4.63;;;12.10;99.90;;;;;;4955761;28;20481;-69
2022/05/29 06:57:06;;;;;;;7.80;3.93;;;12.00;99.90;;;;;;4955693;28;20511;-68
2022/05/29 07:06:58;;;;;;;6.60;4.73;;;12.10;99.90;;;;;;4945548;28;21141;-69
2022/05/29 07:07:52;;;;;;;5.03;4.30;;;12.10;99.90;;;;;;4955897;29;20236;-68
2022/05/29 07:10:19;;;;;;;5.63;4.23;;;12.10;99.90;;;;;;4955403;28;20465;-67
2022/05/29 07:12:46;;;;;;;8.47;3.57;;;12.10;99.90;;;;;;4955879;28;20531;-69
2022/05/29 07:15:15;;;;;;;14.87;4.20;;;12.20;99.90;;;;;;4955569;28;20599;-69
2022/05/29 07:17:41;;;;;;;8.07;4.13;;;12.30;99.90;;;;;;4955672;28;20468;-68
2022/05/29 07:20:09;;;;;;;5.80;3.90;;;12.30;99.90;;;;;;4954178;28;20476;-72
2022/05/29 07:22:36;;;;;;;6.40;4.20;;;12.40;99.90;;;;;;4955429;28;20488;-70
2022/05/29 07:25:05;;;;;;;6.80;4.40;;;12.40;99.90;;;;;;4956047;28;20499;-68
2022/05/29 07:27:32;;;;;;;5.77;4.23;;;12.50;99.90;;;;;;4955349;28;20492;-68
2022/05/29 07:29:58;;;;;;;7.20;3.60;;;12.50;99.90;;;;;;4954924;28;20468;-69
2022/05/29 07:32:25;;;;;;;5.37;4.20;;;12.50;99.90;;;;;;4949468;28;20488;-70
2022/05/29 07:34:52;;;;;;;9.43;4.20;;;12.60;99.90;;;;;;4954768;29;20464;-69
2022/05/29 07:37:18;;;;;;;7.87;4.10;;;12.70;99.90;;;;;;4955608;29;20842;-68
2022/05/29 07:39:47;;;;;;;10.13;4.20;;;12.70;99.90;;;;;;4954465;28;20465;-71
2022/05/29 07:45:11;;;;;;;6.20;3.33;;;12.80;99.90;;;;;;4952249;29;20496;-70
2022/05/29 07:47:40;;;;;;;7.83;4.27;;;12.90;99.90;;;;;;4954704;28;20524;-69
2022/05/29 07:50:09;;;;;;;7.20;3.90;;;13.00;99.90;;;;;;4953598;28;20794;-70
2022/05/29 07:52:36;;;;;;;6.40;4.27;;;13.10;99.90;;;;;;4935780;28;20481;-70
2022/05/29 07:55:03;;;;;;;4.47;3.60;;;13.10;99.90;;;;;;4935937;29;20524;-69
2022/05/29 07:57:31;;;;;;;3.83;3.50;;;13.10;99.90;;;;;;4935984;29;20554;-68
2022/05/29 07:59:58;;;;;;;6.20;3.70;;;13.20;99.90;;;;;;4935415;29;20473;-67
2022/05/29 08:02:24;;;;;;;4.23;3.37;;;13.10;99.90;;;;;;4935938;29;20505;-71
2022/05/29 08:04:52;;;;;;;6.30;3.97;;;13.10;99.90;;;;;;4944884;29;20496;-70
2022/05/29 08:07:20;;;;;;;3.60;3.40;;;13.20;99.90;;;;;;4955495;28;20492;-69
2022/05/29 08:09:47;;;;;;;6.63;3.20;;;13.10;99.90;;;;;;4952553;28;20472;-71
2022/05/29 08:12:14;;;;;;;10.07;4.40;;;13.10;99.90;;;;;;4954751;28;20481;-68
2022/05/29 08:14:42;;;;;;;5.43;3.60;;;13.10;99.90;;;;;;4954947;29;20486;-68
2022/05/29 08:17:09;;;;;;;4.00;3.70;;;13.10;99.90;;;;;;4954820;29;20465;-68
2022/05/29 08:19:36;;;;;;;5.47;3.40;;;13.20;99.90;;;;;;4953572;29;20844;-68
2022/05/29 08:22:03;;;;;;;8.40;2.87;;;13.40;99.90;;;;;;4953414;28;20591;-68
2022/05/29 08:32:58;;;;;;;4.53;2.70;;;13.70;99.90;;;;;;4954008;29;20600;-70
2022/05/29 08:35:25;;;;;;;3.90;2.90;;;13.90;99.90;;;;;;4954147;29;20476;-69
2022/05/29 08:37:51;;;;;;;6.13;2.27;;;13.90;99.90;;;;;;4953586;28;21048;-71
2022/05/29 08:40:18;;;;;;;2.30;2.10;;;13.90;99.90;;;;;;4953615;28;20464;-69
2022/05/29 08:42:45;;;;;;;2.43;2.00;;;13.80;99.90;;;;;;4954157;28;20477;-68
2022/05/29 08:45:14;;;;;;;2.00;1.90;;;13.70;99.90;;;;;;4953838;28;20551;-70
2022/05/29 08:47:45;;;;;;;2.77;1.90;;;13.50;99.90;;;;;;4954023;28;20875;-69
2022/05/29 08:50:19;;;;;;;3.13;2.40;;;13.50;99.90;;;;;;4952422;28;21089;-72
2022/05/29 08:53:00;;;;;;;2.60;2.00;;;13.50;99.90;;;;;;4954325;28;20469;-70
2022/05/29 08:55:30;;;;;;;3.47;2.10;;;13.60;99.90;;;;;;4953183;28;20523;-70
2022/05/29 08:58:06;;;;;;;2.70;2.17;;;13.80;99.90;;;;;;4952518;28;20477;-67
2022/05/29 09:00:46;;;;;;;3.37;2.33;;;13.90;99.90;;;;;;4953622;28;20495;-68
2022/05/29 09:03:41;;;;;;;2.03;1.77;;;14.10;99.90;;;;;;4953541;29;21105;-69
2022/05/29 09:06:13;;;;;;;3.10;1.77;;;14.30;99.90;;;;;;4953001;28;20820;-68
2022/05/29 09:08:43;;;;;;;1.73;1.63;;;14.50;99.90;;;;;;4951421;29;20527;-68
2022/05/29 09:11:16;;;;;;;1.70;1.60;;;14.70;99.90;;;;;;4952647;28;21060;-70
2022/05/29 09:13:47;;;;;;;1.97;1.70;;;14.70;99.90;;;;;;4953543;29;20464;-69
2022/05/29 09:16:18;;;;;;;2.80;1.73;;;14.60;99.90;;;;;;4953385;28;20941;-70
2022/05/29 09:18:55;;;;;;;2.37;1.70;;;14.50;99.90;;;;;;4953097;28;20572;-67
2022/05/29 09:21:27;;;;;;;1.63;1.53;;;14.30;99.90;;;;;;4952243;29;20534;-68
2022/05/29 09:23:59;;;;;;;2.03;1.80;;;14.10;99.90;;;;;;4953369;28;20571;-69
2022/05/29 09:26:32;;;;;;;4.10;1.47;;;14.00;99.90;;;;;;4953460;28;20535;-68
2022/05/29 09:28:59;;;;;;;2.10;1.63;;;14.00;99.90;;;;;;4953244;28;20469;-69
2022/05/29 09:31:27;;;;;;;1.93;1.70;;;14.00;99.90;;;;;;4952566;28;20524;-68
2022/05/29 09:33:55;;;;;;;2.50;1.43;;;14.10;99.90;;;;;;4952901;28;20604;-68
2022/05/29 09:36:29;;;;;;;2.27;1.70;;;14.30;99.90;;;;;;4952552;28;20959;-69
2022/05/29 09:39:01;;;;;;;2.87;2.77;;;14.50;99.90;;;;;;4953338;28;20474;-68
2022/05/29 09:41:35;;;;;;;2.10;1.40;;;14.50;99.90;;;;;;4952739;28;20492;-67
2022/05/29 09:44:10;;;;;;;1.37;1.37;;;14.50;99.90;;;;;;4953033;28;20488;-68
2022/05/29 09:46:40;;;;;;;3.13;1.40;;;14.30;99.90;;;;;;4952892;28;20464;-71
2022/05/29 09:52:04;;;;;;;1.33;1.30;;;14.10;99.90;;;;;;4952127;28;20459;-69
2022/05/29 09:54:33;;;;;;;1.83;1.73;;;14.00;99.90;;;;;;4953285;28;20496;-70
2022/05/29 09:57:08;;;;;;;1.83;1.73;;;13.90;99.90;;;;;;4952811;28;20528;-68
2022/05/29 09:59:39;;;;;;;2.10;2.00;;;14.00;99.90;;;;;;4952407;28;20543;-69
2022/05/29 10:02:12;;;;;;;1.90;1.30;;;14.00;99.90;;;;;;4952677;28;20909;-71
2022/05/29 10:04:41;;;;;;;1.20;1.10;;;14.20;99.90;;;;;;4952734;28;20493;-69
2022/05/29 10:07:16;;;;;;;1.73;1.63;;;14.10;99.90;;;;;;4954355;28;20464;-69
2022/05/29 10:09:57;;;;;;;2.23;1.63;;;13.90;99.90;;;;;;4960059;28;20536;-70
2022/05/29 10:12:33;;;;;;;1.97;1.87;;;13.80;99.90;;;;;;4952685;28;20918;-72
2022/05/29 10:15:00;;;;;;;1.60;1.60;;;13.90;99.90;;;;;;4969279;23;20446;-73
2022/05/29 10:17:36;;;;;;;1.70;1.70;;;14.00;99.90;;;;;;4969611;28;20876;-73
2022/05/29 10:20:04;;;;;;;2.40;2.20;;;14.00;99.90;;;;;;4969559;28;20460;-73
2022/05/29 10:22:37;;;;;;;3.63;2.50;;;14.20;99.90;;;;;;4970238;28;20470;-74
2022/05/29 10:25:14;;;;;;;2.00;1.90;;;14.30;99.90;;;;;;4967056;28;20504;-73
2022/05/29 10:27:42;;;;;;;1.67;1.60;;;14.50;99.90;;;;;;4934419;29;20469;-74
2022/05/29 10:30:11;;;;;;;1.43;1.43;;;14.60;99.90;;;;;;4951795;28;20546;-74
2022/05/29 10:32:43;;;;;;;2.93;1.60;;;14.80;99.90;;;;;;4948550;28;20792;-73
2022/05/29 10:35:22;;;;;;;1.50;1.40;;;14.90;99.90;;;;;;4951361;28;20493;-73
2022/05/29 10:37:51;;;;;;;1.60;1.50;;;15.10;99.90;;;;;;4934981;29;20954;-74
2022/05/29 10:40:23;;;;;;;1.70;1.60;;;15.30;99.90;;;;;;4951557;28;20468;-74
2022/05/29 10:42:52;;;;;;;2.67;1.20;;;15.60;99.90;;;;;;4951775;28;21016;-73
2022/05/29 10:45:23;;;;;;;1.77;1.67;;;15.90;99.90;;;;;;4952168;28;20496;-73
2022/05/29 10:48:02;;;;;;;1.43;1.17;;;16.00;99.90;;;;;;4933460;29;20549;-73
2022/05/29 10:50:48;;;;;;;1.80;1.40;;;15.90;99.90;;;;;;4937938;29;20464;-73
2022/05/29 10:53:23;;;;;;;1.77;1.67;;;15.90;99.90;;;;;;4952475;28;21024;-72
2022/05/29 10:55:55;;;;;;;1.37;1.37;;;;;;;;;;4951173;28;20848;-75
2022/05/29 10:58:42;;;;;;;1.10;1.10;;;15.90;99.90;;;;;;4951799;28;20472;-74
2022/05/29 11:04:29;;;;;;;1.30;1.30;;;15.80;99.90;;;;;;4951511;29;20460;-74
2022/05/29 11:07:08;;;;;;;1.60;1.50;;;15.80;99.90;;;;;;4932592;29;20465;-74
2022/05/29 11:10:03;;;;;;;1.37;1.37;;;15.80;99.90;;;;;;4934017;28;20469;-74
2022/05/29 11:12:41;;;;;;;0.97;0.97;;;15.80;99.90;;;;;;4947886;29;20479;-74
2022/05/29 11:15:25;;;;;;;1.00;1.00;;;15.70;99.90;;;;;;4947639;29;20500;-74
2022/05/29 11:18:13;;;;;;;1.10;1.00;;;15.60;99.90;;;;;;4946373;28;20522;-73
2022/05/29 11:21:06;;;;;;;1.00;1.00;;;15.60;99.90;;;;;;4954225;28;20488;-74
2022/05/29 11:23:49;;;;;;;1.13;1.13;;;15.40;99.90;;;;;;4939927;29;20476;-73
2022/05/29 11:26:27;;;;;;;1.60;1.50;;;15.20;99.90;;;;;;4955029;28;20496;-74
2022/05/29 11:29:09;;;;;;;2.73;1.53;;;15.00;99.90;;;;;;4955576;28;20526;-73
2022/05/29 11:31:51;;;;;;;1.47;1.40;;;14.80;99.90;;;;;;4939660;28;20539;-74
2022/05/29 11:34:30;;;;;;;1.90;1.80;;;14.60;99.90;;;;;;4955077;29;20512;-74
2022/05/29 11:37:22;;;;;;;2.10;2.00;;;14.60;99.90;;;;;;4954842;28;20519;-73
2022/05/29 11:39:51;;;;;;;1.70;1.70;;;14.70;99.90;;;;;;4951401;29;20461;-71
2022/05/29 11:42:22;;;;;;;3.13;2.23;;;14.70;99.90;;;;;;4944854;29;20527;-73
2022/05/29 11:44:54;;;;;;;1.90;1.27;;;14.70;99.90;;;;;;4954812;28;20539;-73
2022/05/29 11:53:15;;;;;;;1.90;1.90;;;15.10;99.90;;;;;;4953449;29;20472;-73
2022/05/29 11:55:45;;;;;;;1.90;1.80;;;15.30;99.90;;;;;;4949253;29;20481;-73
2022/05/29 11:58:18;;;;;;;2.20;1.70;;;15.30;99.90;;;;;;4955006;28;20468;-73
2022/05/29 12:00:51;;;;;;;2.20;2.10;;;15.20;99.90;;;;;;4954391;28;20496;-74
2022/05/29 12:03:36;;;;;;;1.87;1.77;;;15.20;99.90;;;;;;4950394;28;20470;-75
2022/05/29 12:06:10;;;;;;;2.30;2.20;;;15.00;99.90;;;;;;4946236;29;20511;-73
2022/05/29 12:08:52;;;;;;;3.17;2.80;;;14.90;99.90;;;;;;4951128;29;20460;-72
2022/05/29 12:11:43;;;;;;;3.80;2.50;;;14.70;99.90;;;;;;4962050;28;20473;-72
2022/05/29 12:14:17;;;;;;;4.57;2.77;;;14.40;99.90;;;;;;4952253;29;20469;-72
2022/05/29 12:16:47;;;;;;;3.00;2.07;;;13.90;99.90;;;;;;4958038;28;20605;-72
2022/05/29 12:19:17;;;;;;;1.90;1.80;;;13.60;99.90;;;;;;4947208;28;20469;-72
2022/05/29 12:21:48;;;;;;;4.33;2.10;;;13.40;99.90;;;;;;4953075;28;20535;-72
2022/05/29 12:24:21;;;;;;;2.47;2.20;;;13.30;99.90;;;;;;4957442;29;20527;-72
2022/05/29 12:26:53;;;;;;;2.17;1.83;;;13.20;99.90;;;;;;4961770;28;20953;-73
2022/05/29 12:29:23;;;;;;;2.13;1.93;;;13.10;99.90;;;;;;4961712;28;20468;-73
2022/05/29 12:31:57;;;;;;;1.90;1.80;;;13.00;99.90;;;;;;4962962;28;20523;-73
2022/05/29 12:34:28;;;;;;;2.07;1.97;;;13.00;99.90;;;;;;4963832;29;20965;-74
2022/05/29 12:37:22;;;;;;;2.07;2.07;;;13.00;99.90;;;;;;4966673;28;20481;-74
2022/05/29 12:40:16;;;;;;;2.40;2.30;;;13.10;99.90;;;;;;4931321;28;20969;-73
2022/05/29 12:43:15;;;;;;;3.43;3.10;;;13.10;99.90;;;;;;4943394;29;20456;-74
2022/05/29 12:45:50;;;;;;;3.03;2.30;;;13.10;99.90;;;;;;4934759;29;20486;-73
2022/05/29 12:48:51;;;;;;;2.40;2.20;;;13.10;99.90;;;;;;4947490;29;20468;-74
2022/05/29 12:51:50;;;;;;;5.43;2.67;;;13.20;99.90;;;;;;4945185;28;20572;-73
2022/05/29 12:54:45;;;;;;;2.37;2.20;;;13.20;99.90;;;;;;4939827;29;20801;-72
2022/05/29 12:57:43;;;;;;;3.50;2.40;;;13.20;99.90;;;;;;4954140;28;20491;-73
2022/05/29 13:00:25;;;;;;;3.00;2.80;;;13.40;99.90;;;;;;4953475;28;20459;-72
2022/05/29 13:03:36;;;;;;;2.10;1.97;;;13.50;99.90;;;;;;4953725;29;20456;-71
2022/05/29 13:06:54;;;;;;;2.00;1.80;;;13.50;99.90;;;;;;4935634;29;20577;-72
2022/05/29 13:09:51;;;;;;;2.90;2.33;;;13.50;99.90;;;;;;4946148;29;20477;-72
2022/05/29 13:12:22;;;;;;;3.57;2.63;;;13.60;99.90;;;;;;4953548;28;20469;-73
2022/05/29 13:14:53;;;;;;;2.43;2.33;;;13.40;99.90;;;;;;4952966;28;20477;-72
2022/05/29 13:17:25;;;;;;;2.13;2.10;;;13.40;99.90;;;;;;4934560;29;20618;-72
2022/05/29 13:20:06;;;;;;;4.03;2.10;;;13.40;99.90;;;;;;4944237;29;20504;-71
2022/05/29 13:22:55;;;;;;;1.70;1.70;;;13.30;99.90;;;;;;4940123;29;20469;-72
2022/05/29 13:25:24;;;;;;;2.70;1.90;;;13.20;99.90;;;;;;4953469;28;20489;-71
2022/05/29 13:27:53;;;;;;;2.60;2.40;;;13.10;99.90;;;;;;4949916;29;20975;-70
2022/05/29 13:31:07;;;;;;;1.40;1.30;;;13.10;99.90;;;;;;4946862;28;20833;-71
2022/05/29 13:33:58;;;;;;;1.67;1.63;;;13.10;99.90;;;;;;4946386;28;20461;-71
2022/05/29 13:37:05;;;;;;;1.70;1.63;;;13.20;99.90;;;;;;4950454;28;20512;-72
2022/05/29 13:39:41;;;;;;;1.43;1.43;;;13.20;99.90;;;;;;4947299;28;20559;-72
2022/05/29 13:42:24;;;;;;;1.23;1.23;;;13.10;99.90;;;;;;4952407;28;20837;-71
2022/05/29 13:44:51;;;;;;;1.57;1.47;;;13.20;99.90;;;;;;4947937;28;21071;-71
2022/05/29 13:47:46;;;;;;;2.40;1.40;;;13.20;99.90;;;;;;4953018;28;20539;-71
2022/05/29 13:50:29;;;;;;;2.30;2.10;;;13.20;99.90;;;;;;4935265;28;20524;-71
2022/05/29 13:53:00;;;;;;;1.63;1.53;;;13.20;99.90;;;;;;4938403;29;20528;-71
2022/05/29 13:55:30;;;;;;;1.83;1.80;;;13.20;99.90;;;;;;4944141;28;20473;-70
2022/05/29 14:03:59;;;;;;;1.60;1.60;;;13.30;99.90;;;;;;4952407;29;20935;-70
2022/05/29 14:06:30;;;;;;;1.63;1.63;;;13.30;99.90;;;;;;4951756;28;20492;-69
2022/05/29 14:08:59;;;;;;;1.60;1.50;;;13.40;99.90;;;;;;4946597;29;20515;-70
2022/05/29 14:11:48;;;;;;;1.80;1.70;;;13.50;99.90;;;;;;4945243;28;20480;-69
2022/05/29 14:14:41;;;;;;;3.30;1.87;;;13.60;99.90;;;;;;4945869;29;20551;-69
2022/05/29 14:17:12;;;;;;;2.30;2.03;;;13.80;99.90;;;;;;4948066;29;20453;-69
2022/05/29 14:19:55;;;;;;;2.50;2.40;;;13.90;99.90;;;;;;4950395;28;20762;-70
2022/05/29 14:25:25;;;;;;;2.00;1.90;;;14.10;99.90;;;;;;4948448;28;20492;-69
2022/05/29 14:28:04;;;;;;;2.30;2.10;;;14.10;99.90;;;;;;4948802;29;20500;-69
2022/05/29 14:31:16;;;;;;;2.77;1.93;;;14.20;99.90;;;;;;4952032;28;20464;-70
2022/05/29 14:34:32;;;;;;;1.90;1.80;;;14.40;99.90;;;;;;4933103;28;20465;-69
2022/05/29 14:37:16;;;;;;;2.20;1.83;;;14.60;99.90;;;;;;4905681;28;20523;-69
2022/05/29 14:39:51;;;;;;;2.20;2.10;;;14.60;99.90;;;;;;4951368;28;20457;-69
2022/05/29 14:42:23;;;;;;;2.20;1.53;;;14.60;99.90;;;;;;4951424;28;20464;-68
2022/05/29 14:44:52;;;;;;;1.90;1.80;;;14.70;99.90;;;;;;4951845;28;20461;-69
2022/05/29 14:47:23;;;;;;;1.53;1.53;;;14.80;99.90;;;;;;4952216;28;20549;-70
2022/05/29 14:50:00;;;;;;;1.40;1.40;;;14.80;99.90;;;;;;4950599;28;20469;-70
2022/05/29 14:52:34;;;;;;;2.40;1.57;;;14.80;99.90;;;;;;4952628;28;20468;-69
2022/05/29 14:55:09;;;;;;;1.83;1.83;;;14.70;99.90;;;;;;4955690;28;20480;-70
2022/05/29 14:57:47;;;;;;;1.60;1.50;;;14.60;99.90;;;;;;4946191;29;20460;-70
2022/05/29 15:00:24;;;;;;;1.60;1.50;;;14.40;99.90;;;;;;4954838;28;20464;-70
2022/05/29 15:02:51;;;;;;;1.40;1.40;;;14.40;99.90;;;;;;4949971;29;20555;-70
2022/05/29 15:05:19;;;;;;;1.50;1.50;;;14.40;99.90;;;;;;4955119;28;20481;-70
2022/05/29 15:10:41;;;;;;;1.67;1.57;;;14.20;99.90;;;;;;4949340;28;20480;-69
2022/05/29 15:13:15;;;;;;;7.00;1.67;;;14.20;99.90;;;;;;4955157;28;20479;-69
2022/05/29 15:15:47;;;;;;;2.30;1.40;;;14.20;99.90;;;;;;4955814;28;20490;-69
2022/05/29 15:18:16;;;;;;;2.23;1.53;;;14.20;99.90;;;;;;4949840;28;20477;-69
2022/05/29 15:26:19;;;;;;;1.43;1.43;;;14.20;99.90;;;;;;4955499;28;20547;-70
2022/05/29 15:28:49;;;;;;;2.80;1.60;;;14.20;99.90;;;;;;4955309;28;20473;-69
2022/05/29 15:31:23;;;;;;;1.83;1.73;;;14.20;99.90;;;;;;4954861;28;20468;-69
2022/05/29 15:34:23;;;;;;;3.27;2.10;;;14.30;99.90;;;;;;4955131;28;20937;-70
2022/05/29 15:37:04;;;;;;;2.17;1.80;;;14.40;99.90;;;;;;4939407;29;20993;-70
2022/05/29 15:39:39;;;;;;;1.90;1.90;;;14.40;99.90;;;;;;4955260;28;20468;-69
2022/05/29 15:42:17;;;;;;;1.90;1.77;;;14.50;99.90;;;;;;4954483;29;20460;-70
2022/05/29 15:45:10;;;;;;;3.70;2.40;;;14.50;99.90;;;;;;4949696;28;20474;-70
2022/05/29 15:47:48;;;;;;;2.27;1.60;;;14.50;99.90;;;;;;4955447;28;20520;-70
2022/05/29 15:50:23;;;;;;;5.10;2.97;;;14.60;99.90;;;;;;4953315;28;20523;-70
2022/05/29 15:53:05;;;;;;;2.67;2.00;;;14.60;99.90;;;;;;4936892;29;20469;-70
2022/05/29 15:55:38;;;;;;;3.83;2.30;;;14.60;99.90;;;;;;4954969;28;20492;-70
2022/05/29 15:58:33;;;;;;;2.37;2.17;;;14.50;99.90;;;;;;4948435;29;21021;-68
2022/05/29 16:01:09;;;;;;;2.73;1.87;;;14.50;99.90;;;;;;4945998;29;20473;-71
2022/05/29 16:03:37;;;;;;;2.67;2.57;;;14.30;99.90;;;;;;4946177;28;20913;-69
2022/05/29 16:06:15;;;;;;;2.40;2.30;;;14.30;99.90;;;;;;4953590;28;20504;-70
2022/05/29 16:08:43;;;;;;;2.13;2.03;;;14.30;99.90;;;;;;4951743;28;20472;-70
2022/05/29 16:11:32;;;;;;;2.43;1.80;;;14.20;99.90;;;;;;4949256;29;20469;-70
2022/05/29 16:14:01;;;;;;;1.90;1.80;;;14.20;99.90;;;;;;4953053;29;20460;-70
2022/05/29 16:16:30;;;;;;;3.60;1.87;;;14.10;99.90;;;;;;4955819;28;20596;-70
2022/05/29 16:19:21;;;;;;;1.80;1.30;;;14.10;99.90;;;;;;4955572;28;20469;-70
2022/05/29 16:22:25;;;;;;;2.53;2.00;;;14.00;99.90;;;;;;4955472;28;20460;-70
2022/05/29 16:25:11;;;;;;;2.63;2.43;;;14.00;99.90;;;;;;4947602;28;20515;-70
2022/05/29 16:27:47;;;;;;;1.87;1.77;;;13.90;99.90;;;;;;4954668;28;20580;-70
2022/05/29 16:30:20;;;;;;;2.77;2.57;;;13.90;99.90;;;;;;4953552;28;20472;-70
2022/05/29 16:32:49;;;;;;;2.47;2.37;;;13.90;99.90;;;;;;4946950;29;20556;-70
2022/05/29 16:35:21;;;;;;;2.67;2.57;;;13.90;99.90;;;;;;4952210;28;20489;-70
2022/05/29 16:49:04;;;;;;;5.53;5.10;;;13.70;99.90;;;;;;4947314;28;20851;-70
2022/05/29 16:51:52;;;;;;;4.60;4.30;;;13.80;99.90;;;;;;4952349;28;20981;-70
2022/05/29 16:54:30;;;;;;;2.40;2.20;;;13.90;99.90;;;;;;4950138;29;20461;-70
2022/05/29 16:57:07;;;;;;;3.40;2.17;;;13.90;99.90;;;;;;4954060;28;20508;-71
2022/05/29 16:59:43;;;;;;;3.60;2.20;;;13.80;99.90;;;;;;4953038;29;20456;-71
2022/05/29 17:02:25;;;;;;;2.80;2.43;;;13.90;99.90;;;;;;4953005;28;21062;-71
2022/05/29 17:05:00;;;;;;;1.77;1.67;;;14.00;99.90;;;;;;4952839;28;20467;-71
2022/05/29 17:07:30;;;;;;;4.40;2.20;;;14.10;99.90;;;;;;4952638;28;20490;-72
2022/05/29 17:10:09;;;;;;;2.13;1.90;;;14.10;99.90;;;;;;4949903;29;20479;-71
2022/05/29 17:12:37;;;;;;;1.73;1.63;;;14.20;99.90;;;;;;4952132;29;20468;-71
2022/05/29 17:15:04;;;;;;;2.83;2.00;;;14.10;99.90;;;;;;4951966;28;20493;-71
2022/05/29 17:17:33;;;;;;;2.17;1.87;;;14.10;99.90;;;;;;4953610;28;20978;-71
2022/05/29 17:20:00;;;;;;;2.97;1.70;;;14.00;99.90;;;;;;4951279;29;20469;-71
2022/05/29 17:22:33;;;;;;;2.57;1.70;;;13.90;99.90;;;;;;4953062;28;20784;-71
2022/05/29 17:25:10;;;;;;;2.07;1.97;;;13.80;99.90;;;;;;4953015;28;20981;-70
2022/05/29 17:27:43;;;;;;;4.60;1.90;;;13.70;99.90;;;;;;4953326;28;20488;-70
2022/05/29 17:30:13;;;;;;;2.40;2.20;;;13.70;99.90;;;;;;4952213;28;20999;-70
2022/05/29 17:32:45;;;;;;;2.50;2.30;;;13.60;99.90;;;;;;4952723;28;20473;-70
2022/05/29 17:35:17;;;;;;;3.47;2.33;;;13.70;99.90;;;;;;4952476;28;20505;-71
2022/05/29 17:38:01;;;;;;;2.93;2.50;;;13.60;99.90;;;;;;4945123;29;20487;-71
2022/05/29 17:40:35;;;;;;;2.33;2.13;;;13.60;99.90;;;;;;4952033;28;20465;-70
2022/05/29 17:43:02;;;;;;;1.90;1.90;;;13.60;99.90;;;;;;4952409;28;20461;-70
2022/05/29 17:45:29;;;;;;;2.23;2.20;;;13.60;99.90;;;;;;4947275;28;20895;-71
2022/05/29 17:48:08;;;;;;;2.70;2.60;;;13.60;99.90;;;;;;4949969;28;20524;-71
2022/05/29 17:50:40;;;;;;;2.83;2.30;;;13.50;99.90;;;;;;4950752;28;22278;-71
2022/05/29 17:53:25;;;;;;;2.37;2.23;;;13.50;99.90;;;;;;4952881;29;20477;-71
2022/05/29 17:55:53;;;;;;;3.73;2.83;;;13.50;99.90;;;;;;4950491;29;21297;-71
2022/05/29 17:58:20;;;;;;;6.10;2.63;;;13.40;99.90;;;;;;4946534;29;20464;-71
2022/05/29 18:00:47;;;;;;;2.67;2.57;;;13.30;99.90;;;;;;4947689;28;20469;-71
2022/05/29 18:03:18;;;;;;;2.70;2.53;;;13.30;99.90;;;;;;4951972;28;20469;-72
2022/05/29 18:05:45;;;;;;;4.57;2.80;;;13.30;99.90;;;;;;4945217;28;20488;-71
2022/05/29 18:08:12;;;;;;;2.67;2.30;;;13.20;99.90;;;;;;4952824;28;20492;-70
2022/05/29 18:10:42;;;;;;;3.93;2.10;;;13.10;99.90;;;;;;4951113;29;20472;-69
2022/05/29 18:13:09;;;;;;;8.80;3.87;;;13.00;99.90;;;;;;4952674;28;20543;-69
2022/05/29 18:15:36;;;;;;;3.40;3.10;;;13.00;99.90;;;;;;4952387;28;20826;-70
2022/05/29 18:18:02;;;;;;;4.77;3.10;;;12.90;99.90;;;;;;4951856;28;20614;-70
2022/05/29 18:20:30;;;;;;;3.73;2.87;;;12.90;99.90;;;;;;4950447;28;20476;-70